• Join FlightAware (Why Join?)
  • Login
  • US Flag 
Trick or treat! (Boo!!) 
07:32AM EDT


 

Airport Tracker/Info


-or-


 

Live Flight TrackerFlight Track Log ✈ SWA655 ✈ 16-Apr-2013 ✈ KSNA - KOAK

Flight Track Log - Related Links

Times and Time Zones

All times are in EDT time to prevent confusion due to time zone crossing. See the SWA655 flight status page for this flight to view local times or setup timezone preferences in your user account.

Time Position Orientation Groundspeed Altitude Reporting Facility
EDT Latitude Longitude Course Direction KTS MPH feet Rate Location/Type
02:21PM 33.6500 -117.8833 203° Southwest 136 157 1,600  Level Southern California TRACON
02:22PM 33.6167 -117.9000 203° Southwest 154 177 3,200 1,740 Climbing Southern California TRACON
02:23PM 33.5842 -117.8989 178° South 171 197 4,400 3,060 Climbing Los Angeles Center
02:24PM 33.5150 -117.9358 204° Southwest 261 300 8,200 3,840 Climbing Los Angeles Center
02:25PM 33.4433 -117.9864 210° Southwest 291 335 12,400 3,720 Climbing Los Angeles Center
02:26PM 33.4283 -118.0833 260° West 296 341 16,000 3,780 Climbing Los Angeles Center
02:27PM 33.4114 -118.1844 259° West 304 350 20,300 3,480 Climbing Los Angeles Center
02:28PM 33.3947 -118.2881 259° West 312 359 23,300 1,740 Climbing Los Angeles Center
02:29PM 33.4233 -118.3933 288° West 338 389 24,000 1,020 Climbing Los Angeles Center
02:30PM 33.5472 -118.4242 348° North 383 441 25,500 1,800 Climbing Los Angeles Center
02:31PM 33.6636 -118.4264 359° North 411 473 27,800 1,200 Climbing Los Angeles Center
02:32PM 33.7706 -118.4278 359° North 422 486 28,000 1,140 Climbing Los Angeles Center
02:33PM 33.9078 -118.4333 358° North 426 490 30,200 2,040 Climbing Los Angeles Center
02:34PM 34.0150 -118.4728 343° North 406 467 32,300 1,980 Climbing Los Angeles Center
02:35PM 34.1197 -118.5233 338° Northwest 404 465 34,400 1,740 Climbing Los Angeles Center
02:36PM 34.2244 -118.5750 338° Northwest 406 467 36,000 1,560 Climbing Los Angeles Center
02:37PM 34.3294 -118.6275 338° Northwest 407 468 37,700 1,560 Climbing Los Angeles Center
02:38PM 34.4550 -118.6883 338° Northwest 407 468 39,300 1,080 Climbing Los Angeles Center
02:39PM 34.5603 -118.7408 338° Northwest 408 470 40,000 300 Climbing Los Angeles Center
02:40PM 34.6681 -118.7917 339° North 413 475 40,000  Level Los Angeles Center
02:41PM 34.7736 -118.8492 336° Northwest 416 479 40,000  Level Los Angeles Center
02:42PM 34.8653 -118.9253 326° Northwest 408 470 40,000  Level Los Angeles Center
02:43PM 34.9625 -119.0161 323° Northwest 393 452 40,000  Level Los Angeles Center
02:44PM 35.0483 -119.1000 321° Northwest 396 456 40,000  Level Los Angeles Center
02:45PM 35.1339 -119.1839 321° Northwest 395 455 40,000  Level Los Angeles Center
02:46PM 35.2028 -119.2503 322° Northwest 395 455 40,000  Level Los Angeles Center
02:47PM 35.3214 -119.3681 321° Northwest 394 453 40,000  Level Los Angeles Center
02:48PM 35.4069 -119.4522 321° Northwest 394 453 40,000  Level Los Angeles Center
02:49PM 35.4911 -119.5358 321° Northwest 393 452 40,000  Level Los Angeles Center
02:50PM 35.5753 -119.6203 321° Northwest 393 452 40,000  Level Los Angeles Center
02:52PM 35.6583 -119.7028 321° Northwest 387 445 40,000  Level Los Angeles Center
02:53PM 35.7406 -119.7861 321° Northwest 386 444 40,000  Level Los Angeles Center
02:54PM 35.8389 -119.8839 321° Northwest 389 448 40,000  Level Oakland Center
02:55PM 35.9225 -119.9675 321° Northwest 390 449 40,000  Level Oakland Center
02:56PM 36.0217 -120.0681 321° Northwest 390 449 40,000  Level Oakland Center
02:57PM 36.1047 -120.1525 321° Northwest 387 445 40,000  Level Oakland Center
02:58PM 36.1878 -120.2383 320° Northwest 391 450 40,000 -420 Level Oakland Center
02:59PM 36.2714 -120.3231 321° Northwest 390 449 39,200 -900 Descending Oakland Center
03:00PM 36.3522 -120.4044 321° Northwest 375 432 38,200 -960 Descending Oakland Center
03:01PM 36.4311 -120.4864 320° Northwest 370 426 37,300 -1,080 Descending Oakland Center
03:02PM 36.5133 -120.5692 321° Northwest 382 440 36,100 -1,860 Descending Oakland Center
03:03PM 36.5939 -120.6547 320° Northwest 382 440 33,500 -2,640 Descending Oakland Center
03:04PM 36.6728 -120.7369 320° Northwest 371 427 30,800 -2,580 Descending Oakland Center
03:05PM 36.7492 -120.8181 320° Northwest 363 418 28,300 -2,640 Descending Oakland Center
03:06PM 36.8319 -120.9092 319° Northwest 336 387 25,500 -2,460 Descending Oakland Center
03:07PM 36.8983 -120.9850 318° Northwest 324 373 23,300 -2,160 Descending Oakland Center
03:08PM 36.9608 -121.0586 317° Northwest 314 361 21,200 -2,040 Descending Oakland Center
03:09PM 37.0186 -121.1239 318° Northwest 289 333 19,200 -1,980 Descending Oakland Center
03:10PM 37.0750 -121.1906 317° Northwest 265 305 17,200 -2,040 Descending Oakland Center
03:11PM 37.1339 -121.2556 319° Northwest 292 336 15,100 -2,220 Descending Oakland Center
03:12PM 37.2000 -121.3339 317° Northwest 324 373 12,800 -2,220 Descending Oakland Center
03:13PM 37.2619 -121.4053 317° Northwest 306 352 10,600 -1,500 Descending Oakland Center
03:14PM 37.3194 -121.4739 317° Northwest 281 323 9,800 -1,200 Descending Oakland Center
03:15PM 37.3744 -121.5378 317° Northwest 260 299 8,200 -1,560 Descending Oakland Center
03:16PM 37.4167 -121.5833 319° Northwest 256 295 7,100 -1,260 Descending Northern Cal TRACON
03:17PM 37.4667 -121.6667 307° West 254 292 6,100 -720 Descending Northern Cal TRACON
03:18PM 37.5000 -121.7500 297° West 252 290 5,600 -300 Descending Northern Cal TRACON
03:19PM 37.5167 -121.8333 284° West 250 288 5,500 -600 Descending Northern Cal TRACON
03:20PM 37.5500 -121.9000 302° West 249 287 4,400 -1,080 Descending Northern Cal TRACON
03:21PM 37.5667 -121.9833 284° West 240 276 3,500 -840 Descending Northern Cal TRACON
03:22PM 37.6000 -122.0500 302° West 215 247 2,900 -540 Descending Northern Cal TRACON
03:23PM 37.6333 -122.1000 310° West 201 231 2,500 -660 Descending Northern Cal TRACON
03:23PM 37.6389 -122.1236 287° West 214 246 2,000 -1,080 Descending Oakland Center
03:24PM 37.6697 -122.1672 312° West 190 219 1,000 -840 Descending Oakland Center
03:25PM 37.6903 -122.1983 310° West 144 166 300 9,240 Descending Oakland Center
03:26PM 37.7103 -122.2278 311° West 123 142 20,000 19,320 Climbing Oakland Center
03:28PM 37.7167 -122.2167 270° West  Level FlightAware Approximate